createdAt,value
2022-11-20T00:01:21.685Z,76.60
2022-11-20T00:03:48.776Z,75.87
2022-11-20T00:06:18.765Z,75.62
2022-11-20T00:08:46.328Z,75.68
2022-11-20T00:11:18.104Z,75.51
2022-11-20T00:13:46.495Z,75.41
2022-11-20T00:16:16.287Z,75.10
2022-11-20T00:18:45.827Z,75.85
2022-11-20T00:21:22.627Z,75.12
2022-11-20T00:23:53.860Z,75.76
2022-11-20T00:26:24.366Z,74.86
2022-11-20T00:29:00.110Z,75.30
2022-11-20T00:31:28.530Z,74.64
2022-11-20T00:33:55.497Z,74.80
2022-11-20T00:36:25.431Z,75.43
2022-11-20T00:38:54.310Z,75.19
2022-11-20T00:41:21.672Z,74.79
2022-11-20T00:43:48.584Z,74.87
2022-11-20T00:46:22.479Z,75.37
2022-11-20T00:48:49.512Z,75.75
2022-11-20T00:51:20.186Z,76.83
2022-11-20T00:53:47.811Z,76.84
2022-11-20T00:56:18.189Z,74.33
2022-11-20T00:58:47.838Z,76.55
2022-11-20T01:01:19.420Z,77.08
2022-11-20T01:03:50.064Z,77.48
2022-11-20T01:06:21.240Z,77.52
2022-11-20T01:08:49.442Z,78.12
2022-11-20T01:11:20.203Z,77.69
2022-11-20T01:13:49.196Z,78.42
2022-11-20T01:16:23.453Z,78.20
2022-11-20T01:18:53.783Z,78.12
2022-11-20T01:21:33.714Z,77.54
2022-11-20T01:24:01.447Z,77.15
2022-11-20T01:26:33.168Z,77.10
2022-11-20T01:29:01.292Z,76.52
2022-11-20T01:31:30.846Z,77.37
2022-11-20T01:34:01.332Z,76.53
2022-11-20T01:36:30.381Z,76.61
2022-11-20T01:39:00.822Z,76.07
2022-11-20T01:41:48.926Z,76.05
2022-11-20T01:44:19.151Z,75.21
2022-11-20T01:46:57.780Z,76.00
2022-11-20T01:49:43.757Z,75.31
2022-11-20T01:52:15.636Z,75.61
2022-11-20T01:54:50.822Z,75.60
2022-11-20T01:57:20.704Z,75.83
2022-11-20T02:00:01.005Z,75.42
2022-11-20T02:02:28.501Z,76.51
2022-11-20T02:05:03.777Z,76.95
2022-11-20T02:07:31.812Z,75.73
2022-11-20T02:09:59.109Z,75.42
2022-11-20T02:12:44.639Z,76.93
2022-11-20T02:15:11.672Z,76.61
2022-11-20T02:17:39.220Z,76.06
2022-11-20T02:20:07.390Z,75.57
2022-11-20T02:22:49.599Z,74.88
2022-11-20T02:25:17.126Z,75.70
2022-11-20T02:27:44.223Z,75.89
2022-11-20T02:30:12.028Z,75.86
2022-11-20T02:32:39.828Z,75.78
2022-11-20T02:35:10.829Z,75.45
2022-11-20T02:37:41.309Z,75.07
2022-11-20T02:40:09.200Z,75.71
2022-11-20T02:42:37.237Z,75.70
2022-11-20T02:45:05.946Z,75.15
2022-11-20T02:47:33.428Z,75.62
2022-11-20T02:50:00.387Z,75.24
2022-11-20T02:52:27.380Z,75.33
2022-11-20T02:54:54.244Z,75.48
2022-11-20T02:57:21.217Z,75.71
2022-11-20T02:59:48.020Z,76.24
2022-11-20T03:02:14.803Z,76.06
2022-11-20T03:04:41.619Z,76.18
2022-11-20T03:07:10.716Z,76.15
2022-11-20T03:09:37.844Z,76.48
2022-11-20T03:12:05.245Z,76.35
2022-11-20T03:14:32.103Z,75.60
2022-11-20T03:16:58.957Z,75.86
2022-11-20T03:19:25.780Z,75.28
2022-11-20T03:21:52.592Z,75.15
2022-11-20T03:24:19.458Z,75.00
2022-11-20T03:26:46.338Z,74.93
2022-11-20T03:29:13.231Z,75.02
2022-11-20T03:31:41.910Z,74.43
2022-11-20T03:34:10.775Z,74.44
2022-11-20T03:36:42.873Z,75.17
2022-11-20T03:39:10.656Z,75.21
2022-11-20T03:41:40.845Z,75.15
2022-11-20T03:44:10.874Z,75.79
2022-11-20T03:46:38.042Z,75.05
2022-11-20T03:49:05.605Z,75.08
2022-11-20T03:51:35.707Z,75.44
2022-11-20T03:54:08.600Z,74.55
2022-11-20T03:56:38.714Z,74.25
2022-11-20T03:59:06.048Z,74.97
2022-11-20T04:01:36.142Z,75.70
2022-11-20T04:04:04.115Z,75.46
2022-11-20T04:06:36.827Z,74.84
2022-11-20T04:09:04.760Z,76.02
2022-11-20T04:11:35.083Z,75.70
2022-11-20T04:14:05.913Z,74.77
2022-11-20T04:16:37.222Z,74.16
2022-11-20T04:19:07.539Z,74.21
2022-11-20T04:21:34.604Z,74.12
2022-11-20T04:24:01.959Z,74.63
2022-11-20T04:26:30.128Z,75.17
2022-11-20T04:28:58.277Z,74.72
2022-11-20T04:31:28.620Z,74.06
2022-11-20T04:33:55.873Z,74.08
2022-11-20T04:36:27.737Z,73.87
2022-11-20T04:39:00.282Z,73.82
2022-11-20T04:41:30.689Z,73.22
2022-11-20T04:44:03.271Z,73.53
2022-11-20T04:46:32.903Z,73.44
2022-11-20T04:49:00.772Z,73.36
2022-11-20T04:51:28.428Z,73.41
2022-11-20T04:53:55.412Z,73.06
2022-11-20T04:56:22.337Z,72.91
2022-11-20T04:58:49.248Z,72.50
2022-11-20T05:01:25.079Z,72.31
2022-11-20T05:03:52.567Z,72.59
2022-11-20T05:06:22.209Z,72.35
2022-11-20T05:08:49.324Z,71.72
2022-11-20T05:11:20.457Z,71.67
2022-11-20T05:13:47.749Z,72.14
2022-11-20T05:16:18.385Z,72.82
2022-11-20T05:18:45.729Z,71.91
2022-11-20T05:21:14.172Z,71.06
2022-11-20T05:23:42.093Z,70.89
2022-11-20T05:26:22.151Z,71.58
2022-11-20T05:28:50.062Z,70.99
2022-11-20T05:31:27.252Z,70.95
2022-11-20T05:33:56.640Z,71.01
2022-11-20T05:36:23.808Z,70.47
2022-11-20T05:38:51.345Z,71.00
2022-11-20T05:41:20.860Z,71.32
2022-11-20T05:43:49.330Z,70.70
2022-11-20T05:46:21.263Z,70.84
2022-11-20T05:48:51.794Z,70.37
2022-11-20T05:51:20.679Z,71.09
2022-11-20T05:53:48.764Z,71.48
2022-11-20T05:56:21.418Z,70.83
2022-11-20T05:58:49.048Z,70.50
2022-11-20T06:01:25.450Z,70.44
2022-11-20T06:03:54.144Z,70.70
2022-11-20T06:06:22.037Z,70.53
2022-11-20T06:08:49.804Z,70.40
2022-11-20T06:11:17.965Z,70.44
2022-11-20T06:13:46.347Z,70.31
2022-11-20T06:16:16.932Z,70.77
2022-11-20T06:18:43.952Z,71.50
2022-11-20T06:21:19.574Z,70.84
2022-11-20T06:23:46.717Z,70.92
2022-11-20T06:26:24.194Z,70.86
2022-11-20T06:28:52.168Z,71.11
2022-11-20T06:31:22.257Z,71.35
2022-11-20T06:33:49.948Z,71.43
2022-11-20T06:36:20.094Z,70.97
2022-11-20T06:38:46.948Z,71.53
2022-11-20T06:41:17.092Z,70.80
2022-11-20T06:43:44.293Z,70.92
2022-11-20T06:46:13.392Z,71.90
2022-11-20T06:48:41.084Z,71.19
2022-11-20T06:51:09.296Z,71.30
2022-11-20T06:53:37.179Z,71.27
2022-11-20T06:56:04.672Z,71.14
2022-11-20T06:58:33.623Z,71.01
2022-11-20T07:01:12.482Z,71.82
2022-11-20T07:03:40.631Z,71.54
2022-11-20T07:06:07.904Z,71.93
2022-11-20T07:08:35.836Z,72.51
2022-11-20T07:11:06.315Z,71.42
2022-11-20T07:13:33.911Z,71.34
2022-11-20T07:16:07.358Z,71.11
2022-11-20T07:18:34.786Z,70.42
2022-11-20T07:21:03.631Z,70.75
2022-11-20T07:23:30.670Z,70.69
2022-11-20T07:25:57.461Z,70.45
2022-11-20T07:28:24.251Z,69.63
2022-11-20T07:30:54.541Z,70.40
2022-11-20T07:33:22.003Z,70.83
2022-11-20T07:35:48.847Z,70.57
2022-11-20T07:38:16.043Z,70.37
2022-11-20T07:40:42.872Z,69.54
2022-11-20T07:43:09.691Z,69.67
2022-11-20T07:45:36.561Z,69.25
2022-11-20T07:48:03.641Z,70.76
2022-11-20T07:50:30.545Z,70.02
2022-11-20T07:53:06.854Z,70.88
2022-11-20T07:55:34.202Z,69.37
2022-11-20T07:58:01.175Z,69.32
2022-11-20T08:00:28.613Z,70.00
2022-11-20T08:02:55.755Z,70.24
2022-11-20T08:05:22.633Z,71.04
2022-11-20T08:07:49.576Z,69.36
2022-11-20T08:10:17.311Z,69.13
2022-11-20T08:13:10.734Z,70.29
2022-11-20T08:15:39.771Z,70.09
2022-11-20T08:20:57.158Z,69.71
2022-11-20T08:23:24.858Z,69.16
2022-11-20T08:25:52.203Z,68.72
2022-11-20T08:28:21.632Z,68.73
2022-11-20T08:30:51.007Z,68.03
2022-11-20T08:33:18.992Z,69.52
2022-11-20T08:35:45.957Z,67.43
2022-11-20T08:38:12.825Z,67.42
2022-11-20T08:40:39.620Z,66.51
2022-11-20T08:43:06.449Z,68.04
2022-11-20T08:45:35.040Z,67.30
2022-11-20T08:48:04.117Z,65.81
2022-11-20T08:50:33.353Z,66.66
2022-11-20T08:53:07.266Z,65.74
2022-11-20T08:55:36.488Z,65.59
2022-11-20T08:58:07.811Z,65.44
2022-11-20T09:00:35.416Z,66.08
2022-11-20T09:03:02.853Z,65.51
2022-11-20T09:05:30.262Z,65.91
2022-11-20T09:08:00.391Z,65.04
2022-11-20T09:10:28.536Z,64.82
2022-11-20T09:12:56.502Z,65.22
2022-11-20T09:15:25.072Z,65.40
2022-11-20T09:18:01.885Z,64.23
2022-11-20T09:20:32.065Z,63.79
2022-11-20T09:22:59.098Z,65.46
2022-11-20T09:25:26.270Z,66.14
2022-11-20T09:28:00.002Z,65.26
2022-11-20T09:30:28.010Z,65.96
2022-11-20T09:32:55.308Z,65.38
2022-11-20T09:35:22.130Z,65.15
2022-11-20T09:37:49.024Z,64.88
2022-11-20T09:40:23.859Z,65.12
2022-11-20T09:42:58.652Z,64.68
2022-11-20T09:46:21.109Z,64.78
2022-11-20T09:49:09.117Z,64.04
2022-11-20T09:51:42.669Z,63.88
2022-11-20T09:54:36.683Z,64.86
2022-11-20T09:57:13.681Z,63.79
2022-11-20T09:59:52.265Z,64.14
2022-11-20T10:02:27.733Z,65.11
2022-11-20T10:05:10.410Z,64.58
2022-11-20T10:08:00.290Z,64.37
2022-11-20T10:10:52.425Z,64.69
2022-11-20T10:13:46.291Z,64.29
2022-11-20T10:16:15.715Z,63.33
2022-11-20T10:18:56.128Z,64.16
2022-11-20T10:21:48.187Z,62.59
2022-11-20T10:24:42.615Z,61.79
2022-11-20T10:27:45.714Z,61.07
2022-11-20T10:30:15.941Z,59.74
2022-11-20T10:32:48.086Z,57.41
2022-11-20T10:35:14.765Z,58.50
2022-11-20T10:37:46.372Z,57.75
2022-11-20T10:40:45.453Z,57.95
2022-11-20T10:43:33.892Z,57.01
2022-11-20T10:46:13.621Z,58.55
2022-11-20T10:48:44.383Z,58.80
2022-11-20T10:51:37.878Z,57.90
2022-11-20T10:54:59.953Z,57.47
2022-11-20T10:57:55.346Z,57.89
2022-11-20T11:00:22.477Z,58.69
2022-11-20T11:02:52.517Z,59.27
2022-11-20T11:05:41.665Z,59.11
2022-11-20T11:08:17.160Z,59.52
2022-11-20T11:11:19.710Z,60.54
2022-11-20T11:13:46.777Z,61.30
2022-11-20T11:16:26.816Z,61.01
2022-11-20T11:19:14.258Z,61.52
2022-11-20T11:21:55.612Z,61.71
2022-11-20T11:24:44.197Z,61.05
2022-11-20T11:27:18.669Z,60.86
2022-11-20T11:29:47.013Z,61.82
2022-11-20T11:32:20.176Z,60.63
2022-11-20T11:35:04.314Z,61.03
2022-11-20T11:37:39.697Z,60.85
2022-11-20T11:40:28.539Z,60.14
2022-11-20T11:43:00.871Z,59.23
2022-11-20T11:45:28.816Z,58.09
2022-11-20T11:47:58.876Z,57.94
2022-11-20T11:50:30.430Z,58.30
2022-11-20T11:53:10.868Z,59.85
2022-11-20T11:55:49.006Z,60.72
2022-11-20T11:58:25.179Z,61.57
2022-11-20T12:01:01.528Z,60.98
2022-11-20T12:03:44.803Z,60.73
2022-11-20T12:06:17.458Z,61.47
2022-11-20T12:09:08.836Z,60.65
2022-11-20T12:12:04.221Z,61.45
2022-11-20T12:14:41.098Z,60.95
2022-11-20T12:17:13.090Z,60.00
2022-11-20T12:19:40.438Z,60.38
2022-11-20T12:22:29.808Z,60.05
2022-11-20T12:25:12.978Z,62.86
2022-11-20T12:28:06.679Z,60.35
2022-11-20T12:30:49.579Z,61.59
2022-11-20T12:33:50.513Z,61.77
2022-11-20T12:36:21.059Z,61.04
2022-11-20T12:39:19.344Z,60.52
2022-11-20T12:42:23.379Z,61.38
2022-11-20T12:45:11.353Z,60.01
2022-11-20T12:48:16.267Z,58.99
2022-11-20T12:51:26.119Z,61.18
2022-11-20T12:54:31.106Z,60.69
2022-11-20T12:57:22.647Z,61.32
2022-11-20T13:00:16.002Z,62.34
2022-11-20T13:03:00.304Z,62.01
2022-11-20T13:05:57.116Z,61.68
2022-11-20T13:08:39.207Z,62.63
2022-11-20T13:11:35.614Z,61.96
2022-11-20T13:14:27.436Z,62.34
2022-11-20T13:17:06.318Z,63.25
2022-11-20T13:19:34.263Z,63.18
2022-11-20T13:22:01.245Z,63.66
2022-11-20T13:24:32.234Z,63.93
2022-11-20T13:27:13.987Z,63.10
2022-11-20T13:29:46.378Z,64.16
2022-11-20T13:32:19.279Z,65.70
2022-11-20T13:35:01.657Z,66.71
2022-11-20T13:37:38.599Z,66.94
2022-11-20T13:40:11.423Z,65.76
2022-11-20T13:42:43.955Z,65.90
2022-11-20T13:45:23.821Z,66.37
2022-11-20T13:47:53.098Z,66.43
2022-11-20T13:50:26.335Z,66.83
2022-11-20T13:53:38.925Z,65.54
2022-11-20T13:56:10.166Z,66.22
2022-11-20T13:59:05.341Z,65.99
2022-11-20T14:01:33.591Z,66.23
2022-11-20T14:04:08.068Z,65.96
2022-11-20T14:06:43.720Z,66.48
2022-11-20T14:09:33.362Z,66.39
2022-11-20T14:12:00.729Z,65.74
2022-11-20T14:14:33.303Z,65.76
2022-11-20T14:17:34.522Z,66.21
2022-11-20T14:20:06.258Z,66.34
2022-11-20T14:22:33.113Z,65.73
2022-11-20T14:25:18.331Z,66.84
2022-11-20T14:27:55.255Z,66.68
2022-11-20T14:30:25.991Z,66.73
2022-11-20T14:33:01.422Z,66.46
2022-11-20T14:35:32.640Z,66.21
2022-11-20T14:37:59.715Z,66.59
2022-11-20T14:40:36.784Z,66.65
2022-11-20T14:43:28.013Z,66.18
2022-11-20T14:46:10.187Z,66.12
2022-11-20T14:49:01.759Z,67.39
2022-11-20T14:51:37.758Z,66.67
2022-11-20T14:54:26.440Z,67.60
2022-11-20T14:57:02.722Z,68.09
2022-11-20T14:59:35.021Z,67.37
2022-11-20T15:02:12.246Z,66.95
2022-11-20T15:04:50.183Z,67.07
2022-11-20T15:07:29.352Z,66.65
2022-11-20T15:10:10.524Z,67.01
2022-11-20T15:12:47.782Z,67.73
2022-11-20T15:15:51.273Z,67.18
2022-11-20T15:18:23.427Z,67.27
2022-11-20T15:20:51.126Z,68.45
2022-11-20T15:23:20.048Z,67.67
2022-11-20T15:25:48.497Z,67.76
2022-11-20T15:28:31.471Z,68.37
2022-11-20T15:30:58.794Z,67.83
2022-11-20T15:33:25.786Z,68.10
2022-11-20T15:35:52.631Z,68.49
2022-11-20T15:38:19.432Z,68.64
2022-11-20T15:40:46.191Z,68.17
2022-11-20T15:43:13.967Z,68.34
2022-11-20T15:45:56.818Z,68.14
2022-11-20T15:48:30.942Z,68.75
2022-11-20T15:51:12.771Z,69.37
2022-11-20T15:53:42.009Z,69.25
2022-11-20T15:56:15.729Z,69.17
2022-11-20T15:58:42.815Z,68.63
2022-11-20T16:01:15.778Z,69.00
2022-11-20T16:03:43.114Z,69.15
2022-11-20T16:06:10.072Z,68.81
2022-11-20T16:08:37.067Z,68.94
2022-11-20T16:11:04.729Z,69.56
2022-11-20T16:13:51.843Z,69.05
2022-11-20T16:16:33.567Z,70.11
2022-11-20T16:19:01.183Z,69.80
2022-11-20T16:21:32.235Z,69.67
2022-11-20T16:24:05.831Z,68.46
2022-11-20T16:26:33.803Z,69.17
2022-11-20T16:29:03.394Z,68.24
2022-11-20T16:31:30.432Z,68.21
2022-11-20T16:34:00.911Z,67.56
2022-11-20T16:36:30.207Z,67.99
2022-11-20T16:39:00.601Z,68.09
2022-11-20T16:41:30.733Z,67.61
2022-11-20T16:44:00.495Z,67.83
2022-11-20T16:46:30.856Z,68.33
2022-11-20T16:49:06.378Z,68.13
2022-11-20T16:51:36.108Z,68.10
2022-11-20T16:54:08.593Z,68.63
2022-11-20T16:56:36.070Z,68.72
2022-11-20T16:59:03.674Z,69.19
2022-11-20T17:01:31.785Z,69.25
2022-11-20T17:04:05.187Z,69.73
2022-11-20T17:06:44.049Z,69.39
2022-11-20T17:09:11.507Z,69.59
2022-11-20T17:11:38.728Z,69.31
2022-11-20T17:14:07.397Z,69.94
2022-11-20T17:16:36.183Z,70.03
2022-11-20T17:19:04.091Z,70.12
2022-11-20T17:21:35.834Z,70.00
2022-11-20T17:24:08.407Z,69.35
2022-11-20T17:26:37.667Z,69.69
2022-11-20T17:29:09.587Z,69.75
2022-11-20T17:31:41.007Z,69.89
2022-11-20T17:34:11.540Z,70.48
2022-11-20T17:36:45.716Z,70.54
2022-11-20T17:39:14.936Z,70.08
2022-11-20T17:41:42.058Z,70.23
2022-11-20T17:44:12.835Z,70.38
2022-11-20T17:46:40.039Z,70.64
2022-11-20T17:49:07.436Z,70.09
2022-11-20T17:51:37.879Z,70.41
2022-11-20T17:54:09.521Z,70.99
2022-11-20T17:56:55.264Z,70.76
2022-11-20T17:59:22.298Z,70.46
2022-11-20T18:01:49.345Z,70.70
2022-11-20T18:04:16.821Z,70.20
2022-11-20T18:06:44.090Z,71.11
2022-11-20T18:09:11.563Z,70.48
2022-11-20T18:11:41.979Z,70.67
2022-11-20T18:14:36.254Z,70.47
2022-11-20T18:17:10.769Z,70.83
2022-11-20T18:19:55.536Z,70.81
2022-11-20T18:22:31.292Z,70.43
2022-11-20T18:24:58.227Z,70.53
2022-11-20T18:27:25.055Z,70.58
2022-11-20T18:29:52.328Z,70.89
2022-11-20T18:32:21.756Z,70.92
2022-11-20T18:34:48.736Z,70.77
2022-11-20T18:37:16.513Z,70.52
2022-11-20T18:39:43.605Z,71.17
2022-11-20T18:42:34.837Z,70.95
2022-11-20T18:45:04.648Z,70.74
2022-11-20T18:47:37.290Z,70.34
2022-11-20T18:50:07.927Z,70.23
2022-11-20T18:52:44.276Z,70.63
2022-11-20T18:55:12.593Z,70.31
2022-11-20T18:57:39.434Z,70.61
2022-11-20T19:00:09.684Z,70.57
2022-11-20T19:02:43.019Z,70.95
2022-11-20T19:05:14.755Z,70.76
2022-11-20T19:07:42.388Z,70.80
2022-11-20T19:10:09.596Z,71.20
2022-11-20T19:12:36.516Z,71.26
2022-11-20T19:15:04.199Z,71.28
2022-11-20T19:17:33.016Z,72.56
2022-11-20T19:20:00.231Z,72.22
2022-11-20T19:22:27.122Z,72.37
2022-11-20T19:24:54.624Z,72.03
2022-11-20T19:27:21.502Z,72.12
2022-11-20T19:29:48.429Z,72.39
2022-11-20T19:32:16.265Z,72.06
2022-11-20T19:34:43.657Z,72.56
2022-11-20T19:37:10.653Z,72.43
2022-11-20T19:39:37.710Z,72.39
2022-11-20T19:42:04.606Z,72.84
2022-11-20T19:44:32.928Z,73.13
2022-11-20T19:47:00.434Z,72.96
2022-11-20T19:49:27.264Z,72.80
2022-11-20T19:51:54.102Z,73.09
2022-11-20T19:54:20.966Z,73.02
2022-11-20T19:56:49.413Z,73.19
2022-11-20T19:59:16.397Z,72.98
2022-11-20T20:01:43.490Z,73.05
2022-11-20T20:04:10.376Z,72.76
2022-11-20T20:06:41.623Z,72.80
2022-11-20T20:09:11.951Z,73.24
2022-11-20T20:11:39.980Z,73.30
2022-11-20T20:14:14.974Z,73.29
2022-11-20T20:16:42.671Z,72.89
2022-11-20T20:19:14.493Z,72.61
2022-11-20T20:21:41.468Z,72.76
2022-11-20T20:24:11.016Z,72.87
2022-11-20T20:26:38.132Z,72.65
2022-11-20T20:29:04.918Z,73.02
2022-11-20T20:31:33.709Z,72.69
2022-11-20T20:34:03.223Z,72.44
2022-11-20T20:36:30.163Z,72.83
2022-11-20T20:39:04.909Z,72.39
2022-11-20T20:41:32.164Z,72.58
2022-11-20T20:44:17.831Z,72.25
2022-11-20T20:46:44.704Z,72.26
2022-11-20T20:49:11.954Z,72.50
2022-11-20T20:51:39.030Z,72.35
2022-11-20T20:54:06.008Z,72.52
2022-11-20T20:56:32.852Z,72.68
2022-11-20T20:58:59.664Z,72.57
2022-11-20T21:01:29.017Z,72.61
2022-11-20T21:03:57.082Z,72.67
2022-11-20T21:06:24.179Z,72.68
2022-11-20T21:08:51.729Z,72.52
2022-11-20T21:11:20.349Z,72.60
2022-11-20T21:13:47.941Z,72.66
2022-11-20T21:16:17.871Z,72.47
2022-11-20T21:18:44.758Z,72.30
2022-11-20T21:21:34.928Z,72.34
2022-11-20T21:24:02.832Z,71.87
2022-11-20T21:26:30.108Z,72.19
2022-11-20T21:28:57.548Z,72.32
2022-11-20T21:31:26.694Z,72.83
2022-11-20T21:33:56.357Z,74.89
2022-11-20T21:36:26.740Z,73.74
2022-11-20T21:38:55.218Z,72.84
2022-11-20T21:41:23.926Z,73.13
2022-11-20T21:44:29.034Z,74.21
2022-11-20T21:46:45.261Z,72.76
2022-11-20T21:49:12.777Z,72.73
2022-11-20T21:51:39.588Z,72.51
2022-11-20T21:54:06.443Z,71.79
2022-11-20T21:56:33.490Z,72.20
2022-11-20T21:59:00.539Z,72.82
2022-11-20T22:01:30.166Z,71.60
2022-11-20T22:04:02.052Z,72.01
2022-11-20T22:06:34.275Z,72.54
2022-11-20T22:09:02.688Z,72.90
2022-11-20T22:11:30.093Z,73.44
2022-11-20T22:14:15.290Z,71.97
2022-11-20T22:16:42.167Z,73.11
2022-11-20T22:19:09.624Z,72.48
2022-11-20T22:21:39.627Z,72.73
2022-11-20T22:24:06.738Z,73.79
2022-11-20T22:26:40.130Z,74.26
2022-11-20T22:29:08.396Z,73.56
2022-11-20T22:31:35.207Z,73.78
2022-11-20T22:34:02.874Z,73.31
2022-11-20T22:36:31.545Z,74.24
2022-11-20T22:38:58.782Z,75.02
2022-11-20T22:41:28.240Z,73.73
2022-11-20T22:44:00.592Z,74.60
2022-11-20T22:46:30.597Z,74.84
2022-11-20T22:49:01.335Z,75.89
2022-11-20T22:51:35.093Z,75.73
2022-11-20T22:54:03.499Z,75.19
2022-11-20T22:56:31.031Z,76.15
2022-11-20T22:58:57.862Z,76.18
2022-11-20T23:01:30.968Z,76.89
2022-11-20T23:04:04.503Z,77.03
2022-11-20T23:06:34.341Z,77.19
2022-11-20T23:09:02.898Z,76.60
2022-11-20T23:11:31.503Z,76.52
2022-11-20T23:14:05.277Z,77.19
2022-11-20T23:16:33.532Z,77.24
2022-11-20T23:19:04.847Z,77.13
2022-11-20T23:21:32.466Z,77.03
2022-11-20T23:24:00.081Z,76.21
2022-11-20T23:26:30.650Z,74.91
2022-11-20T23:28:59.049Z,76.49
2022-11-20T23:31:28.358Z,77.81
2022-11-20T23:33:55.467Z,77.42
2022-11-20T23:36:22.568Z,76.95
2022-11-20T23:38:49.480Z,77.96
2022-11-20T23:41:16.848Z,77.08
2022-11-20T23:43:43.774Z,76.26
2022-11-20T23:46:15.109Z,76.01
2022-11-20T23:48:44.797Z,76.96
2022-11-20T23:51:11.627Z,76.75
2022-11-20T23:53:38.569Z,76.96
2022-11-20T23:56:06.094Z,77.15
2022-11-20T23:58:35.999Z,77.37
